LiveATC.Net - Listen to live air traffic control over the Internet!


ICAO: CYQG  IATA: YQG   Airport: Windsor Airport
City: Windsor   State/Province: Ontario
Country: Canada   Continent: North America
CYQG METAR Weather: CYQG 292200Z 04014KT 15SM OVC045 07/00 A3021 RMK SC8 SLP237
CYQG Flight Activity (FlightAware)
CYQG Webcam: (Airport Webcams)
CYQG Gnd/Twr/App/Misc
Feed Status: UP   Listeners: 0
Listen right in your browser - requires Flash (in browser, requires Flash)
Click here to listen with your own player (launches your MP3 player)
CYQG Gnd/Twr/App/Misc Audio Archives
FacilityFrequency
Detroit Approach134.300
Great Lakes ESSO122.950
Jazz Air131.775
London RCO123.375
Windsor Ground121.700
Windsor Tower124.700


NOTICE

Unauthorized use prohibited. See LiveATC.net Terms of Service


Find LiveATC Audio Streams


Airport/ARTCC Code

Frequency Search
(e.g., 124.400, 128.75)
Site-wide search
 


Browse LiveATC Feeds
LiveATC Coverage Map
Top 50 LiveATC Feeds
Bad Weather Areas

LiveATC FAQ
Offer a LiveATC Feed
Contact LiveATC.net
Press Inquiries

LiveATC on iPhone
LiveATC on Android

Windows Phone
Windows 8/10

LiveATC Mobile
(Mobile browser)

ATC Audio Archives
Interesting Recordings

LiveATC Forums


Home Page
About LiveATC.net
Make a Donation
LiveATC Store

Terms of Use
Privacy Policy

Canadian Air Freqs

AIRMETs/SIGMETs

FAA Airport Status
Nat'l Airspace Status
Arrival Demand Charts


Server Software By:
Icecast.org
Liquidsoap